Rijeka, Croatia

3:06 PM CET on March 02, 2015 (GMT +0100)
Rijeka | Change Station
CLOSE
Current Station
Airport
Location: Rijeka,
Elevation: 279 ft
Nearby Weather Stations

Elev 279 ft 45.22 °N, 14.57 °E | Updated 6 minutes ago

Light Rain
Light Rain Mist
50 °F
Feels Like 50 °F
N
16
Wind Variable Wind from South
Gusts 30 mph

Today
High -- | Low -- °F
--% Chance of Precip.
Yesterday
High -- | Low -- °F
Precip. -- in
6:38 AM 5:49 PM
Waxing Gibbous, 91% visible
Pressure 29.80 in
Visibility 3.1 miles
Clouds Few 2000 ft
Mostly Cloudy 2300 ft
Overcast 3300 ft
Dew Point 48 °F
Humidity 94%
Rainfall 0.00 in
Snow Depth Not available.
UV 1 out of 12
Pollen Not available.
Air Quality Not available.
Flu Activity Not available.
METAR LDRI 021400Z 17014G26KT 130V230 5000 -RA BR FEW020 BKN023 OVC033 10/09 Q1009

More Conditions Fewer Conditions

Pressure 29.80 in
Visibility 3.1 miles
Clouds Few 2000 ft
Mostly Cloudy 2300 ft
Overcast 3300 ft
Dew Point 48 °F
Humidity 94%
Rainfall 0.00 in
Snow Depth Not available.
UV 1 out of 12
Pollen Not available.
Air Quality Not available.
Flu Activity Not available.
METAR LDRI 021400Z 17014G26KT 130V230 5000 -RA BR FEW020 BKN023 OVC033 10/09 Q1009

More Conditions Fewer Conditions

10-Day Weather Forecast

Almanac

Astronomy

Mar. 02, 2015 Rise Set
Actual Time
Civil Twilight
Nautical Twilight
Astronomical Twilight
Moon
Length of Visible Light
Length of Day
Tomorrow will be .
, % of the Moon is Illuminated

Today's Extremes

Country Highs Country Lows

Community

WunderPhotos

Upload Photos

1,801,784 photos uploaded!

WunderBlogs® & News

Nearby

Air Quality

  Air Quality AQ Index Pollutant
Not available.

Snow Depth

Station Depth Elevation

Earthquake Activity

City Distance Mag. Time & Date
Minimum magnitude displayed is 2.5.

Coastal Water Temperatures

Place Temperature

Nearby Weather Stations